Flight Track Log - Related Links

Times and Time Zones

All times are in EDT time to prevent confusion due to time zone crossing. See the LOF3414 flight status page for this flight to view local times or setup timezone preferences in your user account.

Time Position Orientation Groundspeed Altitude Reporting Facility
EDT Latitude Longitude Course Direction KTS MPH feet Rate Location/Type
Tue 07:06:39 AM 37.2819 -80.0842 340° North 239 275 6,600  Level Washington Center
Tue 07:07:37 AM 37.3406 -80.1294 328° Northwest 209 241 8,900 2,492 Climbing Washington Center
Tue 07:08:37 AM 37.4167 -80.1628 341° North 227 261 11,500 2,331 Climbing Washington Center
Tue 07:09:38 AM 37.4967 -80.1936 343° North 263 303 13,600 2,118 Climbing Washington Center
Tue 07:10:36 AM 37.5811 -80.2278 342° North 295 339 15,700 2,067 Climbing Washington Center
Tue 07:11:00 AM 37.8513 -80.2250 340° North  Level FlightAware Approximate
Tue 07:11:37 AM 37.6542 -80.2794 331° Northwest 320 368 17,700  Level Washington Center
Tue 07:12:00 AM 37.9412 -80.2669 340° North  Level FlightAware Approximate
Tue 07:12:38 AM 37.7350 -80.3422 328° Northwest 325 374 19,500  Level Washington Center
Tue 07:13:39 AM 37.8139 -80.4050 328° Northwest 335 386 21,000 744 Climbing Washington Center
Tue 07:14:39 AM 37.9047 -80.4819 326° Northwest 357 411 21,000 500 Level Washington Center
Tue 07:15:39 AM 37.9975 -80.5592 327° Northwest 382 440 22,000 1,119 Climbing Washington Center
Tue 07:16:37 AM 38.1042 -80.6481 327° Northwest 404 465 23,200 1,070 Climbing Washington Center
Tue 07:18:44 AM 38.2925 -80.7978 328° Northwest 412 474 25,300 989 Climbing Indianapolis Center
Tue 07:19:45 AM 38.3867 -80.8775 326° Northwest 408 470 26,300 1,082 Climbing Indianapolis Center
Tue 07:20:46 AM 38.5008 -80.9747 326° Northwest 411 473 27,500 1,122 Climbing Indianapolis Center
Tue 07:21:48 AM 38.5956 -81.0536 327° Northwest 409 471 28,600 1,024 Climbing Indianapolis Center
Tue 07:22:49 AM 38.6878 -81.1314 327° Northwest 401 461 29,600 689 Climbing Indianapolis Center
Tue 07:23:50 AM 38.7806 -81.2111 326° Northwest 404 465 30,000 197 Climbing Indianapolis Center
Tue 07:24:51 AM 38.8767 -81.2922 327° Northwest 416 479 30,000  Level Indianapolis Center
Tue 07:25:53 AM 38.9750 -81.3769 326° Northwest 429 494 30,000  Level Indianapolis Center
Tue 07:26:54 AM 39.0742 -81.4625 326° Northwest 432 497 30,000 344 Level Indianapolis Center
Tue 07:27:55 AM 39.1736 -81.5481 326° Northwest 432 497 30,700 927 Climbing Indianapolis Center
Tue 07:28:57 AM 39.2881 -81.6464 326° Northwest 414 476 31,900 634 Climbing Indianapolis Center
Tue 07:29:58 AM 39.3814 -81.7286 326° Northwest 409 471 32,000 49 Climbing Indianapolis Center
Tue 07:30:59 AM 39.4422 -81.8578 301° West 419 482 32,000 49 Level Indianapolis Center
Tue 07:32:01 AM 39.4950 -81.9931 297° West 422 486 32,100 488 Climbing Indianapolis Center
Tue 07:33:02 AM 39.5503 -82.1322 297° West 418 481 33,000 878 Climbing Indianapolis Center
Tue 07:34:04 AM 39.6031 -82.2625 298° West 407 468 33,900 488 Climbing Indianapolis Center
Tue 07:35:05 AM 39.6533 -82.3914 297° West 399 459 34,000 49 Climbing Indianapolis Center
Tue 07:36:07 AM 39.7047 -82.5214 297° West 401 461 34,000  Level Indianapolis Center
Tue 07:37:08 AM 39.7561 -82.6519 297° West 402 463 34,000  Level Indianapolis Center
Tue 07:38:10 AM 39.8069 -82.7822 297° West 402 463 34,000  Level Indianapolis Center
Tue 07:39:11 AM 39.8578 -82.9122 297° West 400 460 34,000  Level Indianapolis Center
Tue 07:40:13 AM 39.9161 -83.0636 297° West 400 460 34,000  Level Indianapolis Center
Tue 07:41:14 AM 39.9664 -83.1933 297° West 402 463 34,000  Level Indianapolis Center
Tue 07:42:16 AM 40.0167 -83.3231 297° West 402 463 34,000  Level Indianapolis Center
Tue 07:43:17 AM 40.0658 -83.4536 296° West 404 465 34,000  Level Indianapolis Center
Tue 07:44:19 AM 40.1156 -83.5850 296° West 404 465 34,000  Level Indianapolis Center
Tue 07:45:21 AM 40.1331 -83.7283 279° West 404 465 34,000  Level Indianapolis Center
Tue 07:46:22 AM 40.1386 -83.8750 273° West 403 464 34,000  Level Indianapolis Center
Tue 07:47:24 AM 40.1456 -84.0456 273° West 403 464 34,000  Level Indianapolis Center
Tue 07:48:25 AM 40.1883 -84.1775 293° West 398 458 34,000  Level Indianapolis Center
Tue 07:49:27 AM 40.2717 -84.2803 317° Northwest 407 468 34,000 -97 Level Indianapolis Center
Tue 07:50:29 AM 40.3531 -84.3836 316° Northwest 405 466 33,800 -537 Descending Indianapolis Center
Tue 07:51:30 AM 40.4350 -84.4867 316° Northwest 405 466 32,900 -878 Descending Indianapolis Center
Tue 07:52:32 AM 40.5161 -84.5925 315° West 407 468 32,000 -435 Descending Indianapolis Center
Tue 07:53:34 AM 40.6011 -84.7000 316° Northwest 418 481 32,000  Level Indianapolis Center
Tue 07:54:35 AM 40.6847 -84.8089 315° West 420 483 32,000 -98 Level Indianapolis Center
Tue 07:55:37 AM 40.7750 -84.9314 314° West 422 486 31,800 -823 Descending Indianapolis Center
Tue 07:56:39 AM 40.8044 -85.0817 285° West 426 490 30,300 -1,477 Descending Indianapolis Center
Tue 07:57:47 AM 40.8153 -85.2547 275° West 423 487 28,600 -1,062 Descending Chicago Center
Tue 07:58:49 AM 40.8719 -85.3922 299° West 427 491 28,000 -677 Descending Chicago Center
Tue 07:59:51 AM 40.9497 -85.5147 310° West 432 497 27,200 -1,113 Descending Chicago Center
Tue 08:00:53 AM 41.0300 -85.6406 310° West 444 511 25,700 -1,065 Descending Chicago Center
Tue 08:01:55 AM 41.1117 -85.7664 311° West 447 514 25,000 -341 Descending Chicago Center
Tue 08:02:56 AM 41.2075 -85.9161 310° West 445 512 25,000 -488 Level Chicago Center
Tue 08:03:58 AM 41.2653 -86.0536 299° West 429 494 24,000 -1,210 Descending Chicago Center
Tue 08:05:00 AM 41.3067 -86.2008 291° West 422 486 22,500 -1,419 Descending Chicago Center
Tue 08:07:04 AM 41.3819 -86.4817 290° West 402 463 19,600 -1,419 Descending Chicago Center
Tue 08:08:06 AM 41.4181 -86.6189 289° West 394 453 18,100 -1,645 Descending Chicago Center
Tue 08:09:08 AM 41.4592 -86.7731 290° West 386 444 16,200 -1,887 Descending Chicago Center
Tue 08:10:10 AM 41.4933 -86.9042 289° West 379 436 14,200 -1,935 Descending Chicago Center
Tue 08:11:12 AM 41.5261 -87.0300 289° West 364 419 12,200 -1,073 Descending Chicago Center
Tue 08:12:13 AM 41.5583 -87.1544 289° West 358 412 12,000 -150 Descending Chicago Center
Tue 08:12:32 AM 41.5667 -87.2000 284° West 355 409 12,000  Level Chicago TRACON
Tue 08:13:32 AM 41.6333 -87.3167 307° West 349 402 12,000 -57 Level Chicago TRACON
Tue 08:14:17 AM 41.6706 -87.3881 305° West 342 394 11,900 -1,065 Descending Chicago Center
Tue 08:15:19 AM 41.7250 -87.4753 310° West 311 358 10,100 -1,258 Descending Chicago Center
Tue 08:16:21 AM 41.7650 -87.5619 302° West 281 323 9,300 -968 Descending Chicago Center
Tue 08:17:23 AM 41.8128 -87.6383 310° West 283 326 8,100 -1,100 Descending Chicago Center
Tue 08:18:21 AM 41.8833 -87.6833 335° Northwest 259 298 7,100 -559 Descending Chicago TRACON
Tue 08:19:21 AM 41.9500 -87.7333 331° Northwest 262 302 7,000 -100 Descending Chicago TRACON
Tue 08:20:21 AM 42.0167 -87.7000 20° North 264 304 6,900 -714 Descending Chicago TRACON
Tue 08:21:27 AM 42.0833 -87.6500 29° Northeast 243 280 5,500 -864 Descending Chicago TRACON
Tue 08:22:33 AM 42.1425 -87.6167 23° Northeast 248 285 5,000 -234 Descending Chicago Center
Tue 08:23:35 AM 42.1656 -87.6836 295° West 220 253 5,000 -484 Level Chicago Center
Tue 08:24:37 AM 42.1308 -87.7589 238° Southwest 206 237 4,000 -897 Descending Chicago Center
Tue 08:25:22 AM 42.1000 -87.7833 210° Southwest 148 170 3,400 -800 Descending Chicago TRACON
Tue 08:26:22 AM 42.0667 -87.8167 217° Southwest 147 169 2,600 -750 Descending Chicago TRACON
Tue 08:27:22 AM 42.0500 -87.8500 236° Southwest 107 123 1,900 -650 Descending Chicago TRACON
Tue 08:28:22 AM 42.0167 -87.8667 200° South 108 124 1,300 -600 Descending Chicago TRACON
Tue 08:30:00 AM 41.9817 -87.9067 304° West  Level Estimated

Login

Don't have an account? Register now (free) for customized features, flight alerts, and more!